createdAt,value
2022-08-25T00:00:01.635Z,26.13
2022-08-25T00:01:58.149Z,25.92
2022-08-25T00:03:49.742Z,26.95
2022-08-25T00:05:40.948Z,25.60
2022-08-25T00:07:31.967Z,27.48
2022-08-25T00:09:27.012Z,25.08
2022-08-25T00:11:21.154Z,26.50
2022-08-25T00:13:13.106Z,25.10
2022-08-25T00:15:05.606Z,27.63
2022-08-25T00:18:52.986Z,26.38
2022-08-25T00:20:47.158Z,26.00
2022-08-25T00:22:39.703Z,24.80
2022-08-25T00:24:31.317Z,25.48
2022-08-25T00:26:24.305Z,26.80
2022-08-25T00:28:16.569Z,26.60
2022-08-25T00:32:00.239Z,26.38
2022-08-25T00:33:51.960Z,26.83
2022-08-25T00:35:44.182Z,27.73
2022-08-25T00:37:35.347Z,26.13
2022-08-25T00:39:26.965Z,26.92
2022-08-25T00:41:24.999Z,27.55
2022-08-25T00:43:18.166Z,28.00
2022-08-25T00:45:09.761Z,27.77
2022-08-25T00:47:03.520Z,29.40
2022-08-25T00:49:03.662Z,27.38
2022-08-25T00:50:55.073Z,27.15
2022-08-25T00:52:50.901Z,26.58
2022-08-25T00:54:50.693Z,27.45
2022-08-25T00:56:42.038Z,29.75
2022-08-25T00:58:35.284Z,28.03
2022-08-25T01:00:31.953Z,27.85
2022-08-25T01:02:22.689Z,29.02
2022-08-25T01:04:13.343Z,29.10
2022-08-25T01:06:05.833Z,30.75
2022-08-25T01:09:52.526Z,28.58
2022-08-25T01:11:45.323Z,29.95
2022-08-25T01:13:42.927Z,32.78
2022-08-25T01:15:35.258Z,28.42
2022-08-25T01:17:35.014Z,29.25
2022-08-25T01:19:28.208Z,29.45
2022-08-25T01:21:23.405Z,30.83
2022-08-25T01:23:14.524Z,30.13
2022-08-25T01:25:16.890Z,29.83
2022-08-25T01:27:08.905Z,30.15
2022-08-25T01:29:04.523Z,29.52
2022-08-25T01:30:55.989Z,29.40
2022-08-25T01:32:47.552Z,28.02
2022-08-25T01:34:41.961Z,29.30
2022-08-25T01:36:35.606Z,31.67
2022-08-25T01:38:26.289Z,28.65
2022-08-25T01:40:17.590Z,29.83
2022-08-25T01:42:32.755Z,29.83
2022-08-25T01:44:24.175Z,30.27
2022-08-25T01:46:15.101Z,30.88
2022-08-25T01:48:07.723Z,30.15
2022-08-25T01:49:58.415Z,29.45
2022-08-25T01:51:56.542Z,31.73
2022-08-25T01:53:47.559Z,28.73
2022-08-25T01:55:38.622Z,30.40
2022-08-25T01:57:29.793Z,27.55
2022-08-25T01:59:24.314Z,30.20
2022-08-25T02:01:20.253Z,28.90
2022-08-25T02:03:17.546Z,31.30
2022-08-25T02:05:11.437Z,32.67
2022-08-25T02:07:07.821Z,33.25
2022-08-25T02:09:03.263Z,32.67
2022-08-25T02:10:54.679Z,32.15
2022-08-25T02:12:45.272Z,30.43
2022-08-25T02:14:36.540Z,29.17
2022-08-25T02:16:32.193Z,29.65
2022-08-25T02:18:24.175Z,29.65
2022-08-25T02:20:14.790Z,27.55
2022-08-25T02:22:07.094Z,31.80
2022-08-25T02:23:57.450Z,28.42
2022-08-25T02:25:48.802Z,31.13
2022-08-25T02:27:39.588Z,31.40
2022-08-25T02:29:30.525Z,30.88
2022-08-25T02:31:24.540Z,27.73
2022-08-25T02:33:15.224Z,27.98
2022-08-25T02:35:08.190Z,28.05
2022-08-25T02:36:58.946Z,27.48
2022-08-25T02:38:51.314Z,26.83
2022-08-25T02:40:42.319Z,27.98
2022-08-25T02:42:33.489Z,27.58
2022-08-25T02:44:24.268Z,25.70
2022-08-25T02:46:16.759Z,26.90
2022-08-25T02:48:07.783Z,27.23
2022-08-25T02:49:58.631Z,25.65
2022-08-25T02:51:49.353Z,25.83
2022-08-25T02:53:42.897Z,25.55
2022-08-25T02:55:35.337Z,26.48
2022-08-25T02:57:26.286Z,26.67
2022-08-25T02:59:17.395Z,24.40
2022-08-25T03:01:10.226Z,25.40
2022-08-25T03:03:01.042Z,26.75
2022-08-25T03:04:52.020Z,24.02
2022-08-25T03:06:46.764Z,24.70
2022-08-25T03:08:37.801Z,23.63
2022-08-25T03:10:28.830Z,23.77
2022-08-25T03:12:21.495Z,23.17
2022-08-25T03:14:12.891Z,24.02
2022-08-25T03:16:11.212Z,22.58
2022-08-25T03:18:04.147Z,24.83
2022-08-25T03:19:56.030Z,21.77
2022-08-25T03:21:46.745Z,23.17
2022-08-25T03:23:38.001Z,22.42
2022-08-25T03:25:29.187Z,23.35
2022-08-25T03:27:21.543Z,21.38
2022-08-25T03:29:12.491Z,21.83
2022-08-25T03:31:03.583Z,23.45
2022-08-25T03:32:54.249Z,22.83
2022-08-25T03:34:45.148Z,22.23
2022-08-25T03:36:35.990Z,21.67
2022-08-25T03:38:28.350Z,21.50
2022-08-25T03:40:19.579Z,22.95
2022-08-25T03:42:10.585Z,20.90
2022-08-25T03:44:05.239Z,20.83
2022-08-25T03:45:55.997Z,20.65
2022-08-25T03:47:48.541Z,19.60
2022-08-25T03:49:39.472Z,18.33
2022-08-25T03:51:34.607Z,16.85
2022-08-25T03:53:25.561Z,17.52
2022-08-25T03:55:16.383Z,15.48
2022-08-25T03:57:07.281Z,15.00
2022-08-25T03:58:58.248Z,14.82
2022-08-25T04:00:50.616Z,14.88
2022-08-25T04:02:42.160Z,14.00
2022-08-25T04:04:33.504Z,15.20
2022-08-25T04:06:24.868Z,13.13
2022-08-25T04:08:16.637Z,13.15
2022-08-25T04:10:11.109Z,13.73
2022-08-25T04:12:01.924Z,14.43
2022-08-25T04:13:56.073Z,13.23
2022-08-25T04:15:47.000Z,13.85
2022-08-25T04:17:40.639Z,13.80
2022-08-25T04:19:31.596Z,15.00
2022-08-25T04:21:23.773Z,13.23
2022-08-25T04:25:07.213Z,14.35
2022-08-25T04:26:58.493Z,13.13
2022-08-25T04:28:50.241Z,13.68
2022-08-25T04:30:42.615Z,13.88
2022-08-25T04:34:30.488Z,14.80
2022-08-25T04:36:23.430Z,14.82
2022-08-25T04:38:14.490Z,14.15
2022-08-25T04:40:06.269Z,14.73
2022-08-25T04:41:57.241Z,14.35
2022-08-25T04:43:48.703Z,13.85
2022-08-25T04:45:40.156Z,15.18
2022-08-25T04:47:30.958Z,15.15
2022-08-25T04:49:22.085Z,14.32
2022-08-25T04:51:18.184Z,14.77
2022-08-25T04:53:09.790Z,15.00
2022-08-25T04:55:00.622Z,14.68
2022-08-25T04:56:54.418Z,14.43
2022-08-25T04:58:49.286Z,14.35
2022-08-25T05:00:41.115Z,13.70
2022-08-25T05:02:31.940Z,14.15
2022-08-25T05:04:28.311Z,14.15
2022-08-25T05:06:21.987Z,14.73
2022-08-25T05:10:03.498Z,13.82
2022-08-25T05:11:54.854Z,15.32
2022-08-25T05:13:51.432Z,13.50
2022-08-25T05:15:43.150Z,14.13
2022-08-25T05:17:33.711Z,14.75
2022-08-25T05:19:25.249Z,14.55
2022-08-25T05:21:19.725Z,14.40
2022-08-25T05:23:12.070Z,13.65
2022-08-25T05:25:02.754Z,14.02
2022-08-25T05:26:53.801Z,13.90
2022-08-25T05:28:44.928Z,13.88
2022-08-25T05:30:39.637Z,13.77
2022-08-25T05:32:30.512Z,15.00
2022-08-25T05:34:21.503Z,13.35
2022-08-25T05:36:15.258Z,12.60
2022-08-25T05:38:06.996Z,15.02
2022-08-25T05:41:50.605Z,15.35
2022-08-25T05:43:43.575Z,14.70
2022-08-25T05:45:34.741Z,15.20
2022-08-25T05:47:25.767Z,15.52
2022-08-25T05:49:16.920Z,15.45
2022-08-25T05:51:13.617Z,14.85
2022-08-25T05:53:04.336Z,15.48
2022-08-25T05:54:55.313Z,14.32
2022-08-25T05:56:47.168Z,14.32
2022-08-25T06:00:29.517Z,15.63
2022-08-25T06:02:20.402Z,14.95
2022-08-25T06:04:11.355Z,16.33
2022-08-25T06:06:06.647Z,15.00
2022-08-25T06:07:57.517Z,14.48
2022-08-25T06:09:48.642Z,15.18
2022-08-25T06:11:41.216Z,14.43
2022-08-25T06:13:33.683Z,15.15
2022-08-25T06:17:16.113Z,14.65
2022-08-25T06:19:09.566Z,14.95
2022-08-25T06:21:06.890Z,14.20
2022-08-25T06:22:58.451Z,14.70
2022-08-25T06:24:49.729Z,14.32
2022-08-25T06:26:40.254Z,14.57
2022-08-25T06:28:31.186Z,14.52
2022-08-25T06:30:28.722Z,15.55
2022-08-25T06:32:20.003Z,15.05
2022-08-25T06:34:11.608Z,15.43
2022-08-25T06:36:03.111Z,14.55
2022-08-25T06:39:45.482Z,15.00
2022-08-25T06:41:37.272Z,14.80
2022-08-25T06:43:28.365Z,14.90
2022-08-25T06:45:19.373Z,15.52
2022-08-25T06:47:11.725Z,15.50
2022-08-25T06:49:02.778Z,15.55
2022-08-25T06:50:53.357Z,14.38
2022-08-25T06:52:44.344Z,14.98
2022-08-25T06:54:35.564Z,15.45
2022-08-25T06:56:26.679Z,15.48
2022-08-25T06:58:17.230Z,14.40
2022-08-25T07:00:10.050Z,15.23
2022-08-25T07:02:04.652Z,15.25
2022-08-25T07:04:00.628Z,15.10
2022-08-25T07:05:55.899Z,15.25
2022-08-25T07:07:46.601Z,15.52
2022-08-25T07:09:39.224Z,13.95
2022-08-25T07:11:30.216Z,13.95
2022-08-25T07:13:21.135Z,13.27
2022-08-25T07:15:27.068Z,14.20
2022-08-25T07:17:17.734Z,13.65
2022-08-25T07:19:11.342Z,13.77
2022-08-25T07:21:05.864Z,12.65
2022-08-25T07:23:00.213Z,13.05
2022-08-25T07:24:51.926Z,13.10
2022-08-25T07:26:43.697Z,12.13
2022-08-25T07:28:34.363Z,12.82
2022-08-25T07:30:25.952Z,12.13
2022-08-25T07:32:16.844Z,12.40
2022-08-25T07:34:08.621Z,12.05
2022-08-25T07:36:02.093Z,12.75
2022-08-25T07:37:55.101Z,11.73
2022-08-25T07:39:49.019Z,11.82
2022-08-25T07:41:52.247Z,11.20
2022-08-25T07:43:45.516Z,10.57
2022-08-25T07:45:49.600Z,10.07
2022-08-25T07:47:42.625Z,9.25
2022-08-25T07:49:35.932Z,9.13
2022-08-25T07:51:32.005Z,8.75
2022-08-25T07:53:22.783Z,8.48
2022-08-25T07:55:17.843Z,8.07
2022-08-25T07:57:09.783Z,7.40
2022-08-25T07:59:00.796Z,7.20
2022-08-25T08:00:51.742Z,7.25
2022-08-25T08:02:43.333Z,6.57
2022-08-25T08:04:36.519Z,7.07
2022-08-25T08:06:27.413Z,7.00
2022-08-25T08:08:19.693Z,6.97
2022-08-25T08:12:22.584Z,6.00
2022-08-25T08:14:14.196Z,7.10
2022-08-25T08:16:09.721Z,6.47
2022-08-25T08:18:00.812Z,7.03
2022-08-25T08:19:51.941Z,6.28
2022-08-25T08:21:42.793Z,5.53
2022-08-25T08:23:34.655Z,5.20
2022-08-25T08:25:27.497Z,5.45
2022-08-25T08:27:18.834Z,5.68
2022-08-25T08:29:09.507Z,5.68
2022-08-25T08:31:00.945Z,5.65
2022-08-25T08:33:10.006Z,5.95
2022-08-25T08:35:01.700Z,5.20
2022-08-25T08:36:52.687Z,5.30
2022-08-25T08:38:46.728Z,4.82
2022-08-25T08:40:52.741Z,5.20
2022-08-25T08:42:59.872Z,5.35
2022-08-25T08:45:24.690Z,4.90
2022-08-25T08:47:26.209Z,5.00
2022-08-25T08:49:27.994Z,5.07
2022-08-25T08:51:23.394Z,4.40
2022-08-25T08:53:22.183Z,4.10
2022-08-25T08:55:23.330Z,4.97
2022-08-25T08:57:20.415Z,4.60
2022-08-25T08:59:17.617Z,4.25
2022-08-25T09:01:13.528Z,4.03
2022-08-25T09:03:09.784Z,4.50
2022-08-25T09:05:06.708Z,4.15
2022-08-25T09:06:58.964Z,3.97
2022-08-25T09:08:59.098Z,4.20
2022-08-25T09:11:01.344Z,4.03
2022-08-25T09:13:05.780Z,4.25
2022-08-25T09:15:14.967Z,4.38
2022-08-25T09:17:15.051Z,4.10
2022-08-25T09:19:33.467Z,4.35
2022-08-25T09:21:33.509Z,3.65
2022-08-25T09:23:36.030Z,3.72
2022-08-25T09:25:53.277Z,4.20
2022-08-25T09:27:58.637Z,4.53
2022-08-25T09:30:01.531Z,4.10
2022-08-25T09:32:00.201Z,4.30
2022-08-25T09:33:55.914Z,3.95
2022-08-25T09:35:49.556Z,3.97
2022-08-25T09:37:40.479Z,3.92
2022-08-25T09:39:31.352Z,4.22
2022-08-25T09:41:45.015Z,4.32
2022-08-25T09:43:42.107Z,3.90
2022-08-25T09:45:40.608Z,3.80
2022-08-25T09:47:44.854Z,3.50
2022-08-25T09:49:40.262Z,3.72
2022-08-25T09:51:37.872Z,3.83
2022-08-25T09:53:33.664Z,3.50
2022-08-25T09:55:32.451Z,3.80
2022-08-25T09:57:34.384Z,3.50
2022-08-25T09:59:34.267Z,3.20
2022-08-25T10:01:26.362Z,3.90
2022-08-25T10:03:24.738Z,3.38
2022-08-25T10:05:23.436Z,3.58
2022-08-25T10:07:26.410Z,3.85
2022-08-25T10:09:28.513Z,3.60
2022-08-25T10:11:35.014Z,4.20
2022-08-25T10:13:38.076Z,3.47
2022-08-25T10:15:33.763Z,3.53
2022-08-25T10:17:29.435Z,3.58
2022-08-25T10:19:27.160Z,3.60
2022-08-25T10:21:17.837Z,3.47
2022-08-25T10:23:13.151Z,3.72
2022-08-25T10:25:06.075Z,3.83
2022-08-25T10:27:07.497Z,3.78
2022-08-25T10:29:11.232Z,3.97
2022-08-25T10:31:13.968Z,3.20
2022-08-25T10:33:19.049Z,3.58
2022-08-25T10:35:15.321Z,4.00
2022-08-25T10:37:20.927Z,3.75
2022-08-25T10:39:36.394Z,3.45
2022-08-25T10:41:53.343Z,3.65
2022-08-25T10:43:53.035Z,3.50
2022-08-25T10:45:49.058Z,3.55
2022-08-25T10:48:25.445Z,3.65
2022-08-25T10:50:29.135Z,3.83
2022-08-25T10:52:31.198Z,3.38
2022-08-25T10:54:35.318Z,3.40
2022-08-25T10:56:31.223Z,3.50
2022-08-25T10:58:33.368Z,3.70
2022-08-25T11:00:34.048Z,3.40
2022-08-25T11:03:07.660Z,3.70
2022-08-25T11:05:05.141Z,3.70
2022-08-25T11:07:03.121Z,3.60
2022-08-25T11:09:00.550Z,3.47
2022-08-25T11:10:59.868Z,3.50
2022-08-25T11:12:55.975Z,3.22
2022-08-25T11:14:53.260Z,3.42
2022-08-25T11:16:52.105Z,3.33
2022-08-25T11:18:55.917Z,3.30
2022-08-25T11:21:05.857Z,3.17
2022-08-25T11:23:11.348Z,3.35
2022-08-25T11:25:11.599Z,3.20
2022-08-25T11:27:08.321Z,3.42
2022-08-25T11:29:12.330Z,3.40
2022-08-25T11:31:04.478Z,3.85
2022-08-25T11:32:56.858Z,3.30
2022-08-25T11:34:49.925Z,3.28
2022-08-25T11:36:49.117Z,3.90
2022-08-25T11:38:54.719Z,5.45
2022-08-25T11:40:59.278Z,3.65
2022-08-25T11:43:09.275Z,3.50
2022-08-25T11:45:12.729Z,3.58
2022-08-25T11:47:33.281Z,3.92
2022-08-25T11:49:51.848Z,3.13
2022-08-25T11:51:46.851Z,3.70
2022-08-25T11:53:42.117Z,3.35
2022-08-25T11:55:49.391Z,3.53
2022-08-25T11:57:42.103Z,3.40
2022-08-25T12:00:10.404Z,3.65
2022-08-25T12:02:01.376Z,3.72
2022-08-25T12:04:12.495Z,3.70
2022-08-25T12:06:25.441Z,3.38
2022-08-25T12:08:35.872Z,3.72
2022-08-25T12:10:58.916Z,3.67
2022-08-25T12:13:27.064Z,3.60
2022-08-25T12:15:22.740Z,3.88
2022-08-25T12:17:36.622Z,4.05
2022-08-25T12:19:46.984Z,4.18
2022-08-25T12:21:39.886Z,4.10
2022-08-25T12:23:43.017Z,4.05
2022-08-25T12:25:46.943Z,3.70
2022-08-25T12:27:51.105Z,3.70
2022-08-25T12:29:47.163Z,3.28
2022-08-25T12:32:04.881Z,3.55
2022-08-25T12:34:15.916Z,3.70
2022-08-25T12:36:11.214Z,4.10
2022-08-25T12:38:07.715Z,3.30
2022-08-25T12:40:02.865Z,3.60
2022-08-25T12:41:59.706Z,3.92
2022-08-25T12:44:08.839Z,3.60
2022-08-25T12:46:37.638Z,3.70
2022-08-25T12:49:01.581Z,3.95
2022-08-25T12:50:58.970Z,3.75
2022-08-25T12:52:49.851Z,4.22
2022-08-25T12:54:50.455Z,3.97
2022-08-25T12:56:47.655Z,3.70
2022-08-25T12:59:00.964Z,3.65
2022-08-25T13:01:22.628Z,3.85
2022-08-25T13:04:02.804Z,3.72
2022-08-25T13:06:36.398Z,3.80
2022-08-25T13:09:04.518Z,4.40
2022-08-25T13:11:04.233Z,4.60
2022-08-25T13:13:04.735Z,4.07
2022-08-25T13:14:58.345Z,4.65
2022-08-25T13:16:57.288Z,4.35
2022-08-25T13:18:51.362Z,4.70
2022-08-25T13:20:44.117Z,4.70
2022-08-25T13:22:37.002Z,5.15
2022-08-25T13:24:40.246Z,4.57
2022-08-25T13:26:37.268Z,5.03
2022-08-25T13:28:31.923Z,4.35
2022-08-25T13:30:29.209Z,4.45
2022-08-25T13:32:32.060Z,4.50
2022-08-25T13:34:34.558Z,4.40
2022-08-25T13:36:29.094Z,5.90
2022-08-25T13:38:20.031Z,4.82
2022-08-25T13:40:14.307Z,4.88
2022-08-25T13:42:15.416Z,5.07
2022-08-25T13:44:05.954Z,5.47
2022-08-25T13:45:58.273Z,4.80
2022-08-25T13:49:47.847Z,5.10
2022-08-25T13:51:50.877Z,5.65
2022-08-25T13:53:47.833Z,4.38
2022-08-25T13:55:52.189Z,4.18
2022-08-25T13:57:44.798Z,4.18
2022-08-25T13:59:40.556Z,4.55
2022-08-25T14:01:48.372Z,4.10
2022-08-25T14:03:45.708Z,5.10
2022-08-25T14:05:41.020Z,4.50
2022-08-25T14:07:34.066Z,3.75
2022-08-25T14:09:28.320Z,4.55
2022-08-25T14:11:30.649Z,3.85
2022-08-25T14:13:31.508Z,4.28
2022-08-25T14:15:32.194Z,3.80
2022-08-25T14:17:38.154Z,3.70
2022-08-25T14:19:31.415Z,4.50
2022-08-25T14:21:25.536Z,4.35
2022-08-25T14:23:19.688Z,3.47
2022-08-25T14:25:11.231Z,4.30
2022-08-25T14:27:02.724Z,5.05
2022-08-25T14:28:53.349Z,4.57
2022-08-25T14:30:49.047Z,4.35
2022-08-25T14:32:41.281Z,5.10
2022-08-25T14:34:36.919Z,6.05
2022-08-25T14:36:30.738Z,5.45
2022-08-25T14:38:22.790Z,4.60
2022-08-25T14:42:05.001Z,5.18
2022-08-25T14:43:58.044Z,4.10
2022-08-25T14:45:49.548Z,4.32
2022-08-25T14:47:42.776Z,4.80
2022-08-25T14:49:41.087Z,4.88
2022-08-25T14:51:33.600Z,7.35
2022-08-25T14:53:27.987Z,8.35
2022-08-25T14:55:31.846Z,6.93
2022-08-25T14:57:24.059Z,8.27
2022-08-25T14:59:15.615Z,9.13
2022-08-25T15:01:07.095Z,8.15
2022-08-25T15:02:59.196Z,8.50
2022-08-25T15:04:57.273Z,10.35
2022-08-25T15:06:58.109Z,11.75
2022-08-25T15:08:49.009Z,13.57
2022-08-25T15:10:40.403Z,16.08
2022-08-25T15:12:46.487Z,14.73
2022-08-25T15:14:38.729Z,15.05
2022-08-25T15:16:36.419Z,17.05
2022-08-25T15:18:28.763Z,16.10
2022-08-25T15:20:19.448Z,17.08
2022-08-25T15:22:10.757Z,19.30
2022-08-25T15:24:01.316Z,21.17
2022-08-25T15:25:55.923Z,21.25
2022-08-25T15:27:46.382Z,20.50
2022-08-25T15:29:37.518Z,22.30
2022-08-25T15:31:28.278Z,24.15
2022-08-25T15:33:19.832Z,26.55
2022-08-25T15:35:12.471Z,26.25
2022-08-25T15:37:10.282Z,25.52
2022-08-25T15:39:01.834Z,26.50
2022-08-25T15:40:54.639Z,27.65
2022-08-25T15:42:45.954Z,28.48
2022-08-25T15:44:37.016Z,28.58
2022-08-25T15:46:30.323Z,29.25
2022-08-25T15:48:21.255Z,31.80
2022-08-25T15:50:17.546Z,32.28
2022-08-25T15:52:08.385Z,32.10
2022-08-25T15:53:59.497Z,29.60
2022-08-25T15:55:50.416Z,29.23
2022-08-25T15:57:44.696Z,31.17
2022-08-25T15:59:35.172Z,30.33
2022-08-25T16:01:28.046Z,28.42
2022-08-25T16:03:21.481Z,30.65
2022-08-25T16:05:16.380Z,30.20
2022-08-25T16:07:07.399Z,29.65
2022-08-25T16:08:59.318Z,30.27
2022-08-25T16:10:50.037Z,29.05
2022-08-25T16:12:42.762Z,29.23
2022-08-25T16:14:33.409Z,30.73
2022-08-25T16:16:28.142Z,30.95
2022-08-25T16:18:18.867Z,30.85
2022-08-25T16:20:12.611Z,29.70
2022-08-25T16:22:09.008Z,28.20
2022-08-25T16:24:07.523Z,30.38
2022-08-25T16:25:58.320Z,26.80
2022-08-25T16:27:49.629Z,27.90
2022-08-25T16:29:42.224Z,28.30
2022-08-25T16:31:33.245Z,29.20
2022-08-25T16:33:24.329Z,25.52
2022-08-25T16:37:08.339Z,26.17
2022-08-25T16:39:00.112Z,27.60
2022-08-25T16:40:51.270Z,27.70
2022-08-25T16:42:42.637Z,25.90
2022-08-25T16:44:33.545Z,26.13
2022-08-25T16:46:24.483Z,24.95
2022-08-25T16:48:15.418Z,25.00
2022-08-25T16:50:08.538Z,23.67
2022-08-25T16:52:01.971Z,19.45
2022-08-25T16:55:46.744Z,23.70
2022-08-25T16:57:38.415Z,26.37
2022-08-25T16:59:29.191Z,23.85
2022-08-25T17:01:20.948Z,27.73
2022-08-25T17:03:11.633Z,27.30
2022-08-25T17:05:02.808Z,27.17
2022-08-25T17:06:53.380Z,24.65
2022-08-25T17:08:44.201Z,25.73
2022-08-25T17:10:38.590Z,24.23
2022-08-25T17:12:29.567Z,23.20
2022-08-25T17:14:20.381Z,25.15
2022-08-25T17:16:12.393Z,24.90
2022-08-25T17:18:05.795Z,23.40
2022-08-25T17:19:56.769Z,24.33
2022-08-25T17:21:47.952Z,22.80
2022-08-25T17:23:43.420Z,21.13
2022-08-25T17:25:37.152Z,21.90
2022-08-25T17:27:32.201Z,21.35
2022-08-25T17:29:23.199Z,22.73
2022-08-25T17:31:15.077Z,20.52
2022-08-25T17:33:05.930Z,19.40
2022-08-25T17:34:57.073Z,19.20
2022-08-25T17:36:48.485Z,18.90
2022-08-25T17:38:40.213Z,19.67
2022-08-25T17:40:33.292Z,20.42
2022-08-25T17:42:30.156Z,19.45
2022-08-25T17:44:21.254Z,18.02
2022-08-25T17:46:13.079Z,18.63
2022-08-25T17:48:04.876Z,19.17
2022-08-25T17:49:55.703Z,18.30
2022-08-25T17:51:46.529Z,19.40
2022-08-25T17:53:37.568Z,18.13
2022-08-25T17:55:29.013Z,17.65
2022-08-25T17:57:21.285Z,15.45
2022-08-25T17:59:13.501Z,13.45
2022-08-25T18:02:55.891Z,12.27
2022-08-25T18:04:46.997Z,12.65
2022-08-25T18:06:38.775Z,10.48
2022-08-25T18:08:35.003Z,9.88
2022-08-25T18:10:26.294Z,8.75
2022-08-25T18:12:17.259Z,8.80
2022-08-25T18:14:08.085Z,9.07
2022-08-25T18:16:04.100Z,8.48
2022-08-25T18:17:55.684Z,9.50
2022-08-25T18:19:48.453Z,9.55
2022-08-25T18:21:40.119Z,8.85
2022-08-25T18:23:31.139Z,10.05
2022-08-25T18:25:21.947Z,9.02
2022-08-25T18:27:15.217Z,9.18
2022-08-25T18:29:05.978Z,9.10
2022-08-25T18:30:57.589Z,9.32
2022-08-25T18:32:50.803Z,9.43
2022-08-25T18:34:41.601Z,9.38
2022-08-25T18:36:33.055Z,9.30
2022-08-25T18:38:30.000Z,10.68
2022-08-25T18:40:21.730Z,9.75
2022-08-25T18:42:12.643Z,9.40
2022-08-25T18:44:05.673Z,8.82
2022-08-25T18:45:58.105Z,9.45
2022-08-25T18:47:50.921Z,9.30
2022-08-25T18:49:41.716Z,11.18
2022-08-25T18:51:33.276Z,10.00
2022-08-25T18:53:30.385Z,9.93
2022-08-25T18:55:29.605Z,9.80
2022-08-25T18:57:21.174Z,9.55
2022-08-25T18:59:12.849Z,10.13
2022-08-25T19:01:04.979Z,11.35
2022-08-25T19:02:59.383Z,10.13
2022-08-25T19:04:50.432Z,11.43
2022-08-25T19:06:41.675Z,11.43
2022-08-25T19:08:35.236Z,10.48
2022-08-25T19:10:26.641Z,10.27
2022-08-25T19:12:22.468Z,12.00
2022-08-25T19:14:14.062Z,10.95
2022-08-25T19:16:11.319Z,11.68
2022-08-25T19:18:09.761Z,12.15
2022-08-25T19:20:01.654Z,12.23
2022-08-25T19:21:55.434Z,11.65
2022-08-25T19:23:46.077Z,11.60
2022-08-25T19:25:41.661Z,11.95
2022-08-25T19:27:33.896Z,11.27
2022-08-25T19:29:25.990Z,9.55
2022-08-25T19:31:18.293Z,11.40
2022-08-25T19:33:12.118Z,9.93
2022-08-25T19:35:06.056Z,9.20
2022-08-25T19:36:59.137Z,8.43
2022-08-25T19:38:51.747Z,8.75
2022-08-25T19:40:43.072Z,8.20
2022-08-25T19:42:38.367Z,8.23
2022-08-25T19:44:29.738Z,7.40
2022-08-25T19:46:20.969Z,8.55
2022-08-25T19:48:15.803Z,9.10
2022-08-25T19:50:08.677Z,7.72
2022-08-25T19:52:03.345Z,7.57
2022-08-25T19:53:57.133Z,8.05
2022-08-25T19:55:48.936Z,8.45
2022-08-25T19:57:42.708Z,9.25
2022-08-25T19:59:43.183Z,9.02
2022-08-25T20:01:35.416Z,8.90
2022-08-25T20:03:28.797Z,9.13
2022-08-25T20:05:23.921Z,9.43
2022-08-25T20:07:15.612Z,9.75
2022-08-25T20:09:08.311Z,8.93
2022-08-25T20:11:19.350Z,9.20
2022-08-25T20:13:10.103Z,8.52
2022-08-25T20:15:01.269Z,9.30
2022-08-25T20:16:53.160Z,8.77
2022-08-25T20:18:45.313Z,7.53
2022-08-25T20:20:36.870Z,7.93
2022-08-25T20:22:30.907Z,5.63
2022-08-25T20:24:21.812Z,6.13
2022-08-25T20:26:14.921Z,5.40
2022-08-25T20:28:05.708Z,5.22
2022-08-25T20:30:08.537Z,6.13
2022-08-25T20:31:59.531Z,4.72
2022-08-25T20:33:51.789Z,3.67
2022-08-25T20:35:47.288Z,3.60
2022-08-25T20:37:38.198Z,3.38
2022-08-25T20:39:29.128Z,2.90
2022-08-25T20:41:19.729Z,3.30
2022-08-25T20:43:12.130Z,3.53
2022-08-25T20:46:56.962Z,2.85
2022-08-25T20:48:48.665Z,3.35
2022-08-25T20:50:41.660Z,2.92
2022-08-25T20:52:32.821Z,3.00
2022-08-25T20:54:26.670Z,2.88
2022-08-25T20:56:19.168Z,3.10
2022-08-25T20:58:11.257Z,2.70
2022-08-25T21:00:09.850Z,3.72
2022-08-25T21:02:01.495Z,2.78
2022-08-25T21:03:52.833Z,3.25
2022-08-25T21:05:44.702Z,2.58
2022-08-25T21:07:36.579Z,2.95
2022-08-25T21:09:29.181Z,2.70
2022-08-25T21:11:21.737Z,3.08
2022-08-25T21:13:15.297Z,2.60
2022-08-25T21:15:10.767Z,3.30
2022-08-25T21:17:03.475Z,2.83
2022-08-25T21:18:56.097Z,3.22
2022-08-25T21:20:48.502Z,3.05
2022-08-25T21:24:30.155Z,2.70
2022-08-25T21:26:24.608Z,3.20
2022-08-25T21:28:17.044Z,3.15
2022-08-25T21:30:09.911Z,3.25
2022-08-25T21:32:02.402Z,3.50
2022-08-25T21:33:57.125Z,3.38
2022-08-25T21:35:49.595Z,2.63
2022-08-25T21:39:32.571Z,2.58
2022-08-25T21:41:26.611Z,2.50
2022-08-25T21:43:18.633Z,2.45
2022-08-25T21:45:11.496Z,1.90
2022-08-25T21:47:02.478Z,2.60
2022-08-25T21:48:57.450Z,2.55
2022-08-25T21:51:02.849Z,2.42
2022-08-25T21:52:54.672Z,2.33
2022-08-25T21:54:45.923Z,2.70
2022-08-25T21:56:40.437Z,2.78
2022-08-25T21:58:33.427Z,2.63
2022-08-25T22:00:24.878Z,2.80
2022-08-25T22:02:19.183Z,2.88
2022-08-25T22:04:14.246Z,2.92
2022-08-25T22:06:11.213Z,2.33
2022-08-25T22:08:03.553Z,3.17
2022-08-25T22:09:54.689Z,2.80
2022-08-25T22:11:46.305Z,2.38
2022-08-25T22:13:38.701Z,2.53
2022-08-25T22:15:31.888Z,3.35
2022-08-25T22:17:24.392Z,2.80
2022-08-25T22:19:15.848Z,2.10
2022-08-25T22:21:08.853Z,2.50
2022-08-25T22:22:59.811Z,2.95
2022-08-25T22:24:51.388Z,2.67
2022-08-25T22:26:47.400Z,3.45
2022-08-25T22:28:39.179Z,2.50
2022-08-25T22:30:36.507Z,2.20
2022-08-25T22:32:28.339Z,2.38
2022-08-25T22:34:19.355Z,2.22
2022-08-25T22:36:26.219Z,2.40
2022-08-25T22:38:16.909Z,2.20
2022-08-25T22:40:09.600Z,2.17
2022-08-25T22:43:51.509Z,2.05
2022-08-25T22:45:43.534Z,2.08
2022-08-25T22:47:34.247Z,2.65
2022-08-25T22:49:27.491Z,2.00
2022-08-25T22:51:23.169Z,2.28
2022-08-25T22:53:14.000Z,2.30
2022-08-25T22:55:06.851Z,1.83
2022-08-25T22:57:06.379Z,2.05
2022-08-25T22:58:59.987Z,2.15
2022-08-25T23:00:51.261Z,2.30
2022-08-25T23:02:43.434Z,2.30
2022-08-25T23:04:34.123Z,2.65
2022-08-25T23:06:26.761Z,2.63
2022-08-25T23:08:27.124Z,1.83
2022-08-25T23:10:29.234Z,2.20
2022-08-25T23:12:20.260Z,2.40
2022-08-25T23:14:13.219Z,2.38
2022-08-25T23:16:05.311Z,2.15
2022-08-25T23:19:46.988Z,1.92
2022-08-25T23:21:40.891Z,2.15
2022-08-25T23:23:35.391Z,2.75
2022-08-25T23:25:26.305Z,2.00
2022-08-25T23:27:20.603Z,2.25
2022-08-25T23:29:18.304Z,2.00
2022-08-25T23:31:12.620Z,3.38
2022-08-25T23:33:03.671Z,1.90
2022-08-25T23:34:54.991Z,1.77
2022-08-25T23:36:47.139Z,1.90
2022-08-25T23:38:38.682Z,1.80
2022-08-25T23:40:30.514Z,2.05
2022-08-25T23:42:22.234Z,2.05
2022-08-25T23:44:17.128Z,1.90
2022-08-25T23:46:09.608Z,2.13
2022-08-25T23:48:00.428Z,2.17
2022-08-25T23:49:51.789Z,2.17
2022-08-25T23:51:42.564Z,2.17
2022-08-25T23:53:35.718Z,2.47
2022-08-25T23:55:28.648Z,2.05
2022-08-25T23:57:22.914Z,3.03
2022-08-25T23:59:15.103Z,1.83
